createdAt,value
2018-11-14T00:00:44.248Z,8.60
2018-11-14T00:03:12.588Z,8.60
2018-11-14T00:05:40.993Z,8.60
2018-11-14T00:08:09.327Z,8.60
2018-11-14T00:10:37.651Z,8.60
2018-11-14T00:13:06.136Z,8.60
2018-11-14T00:15:34.521Z,8.60
2018-11-14T00:18:02.819Z,8.60
2018-11-14T00:20:31.184Z,8.70
2018-11-14T00:22:59.461Z,8.70
2018-11-14T00:25:27.741Z,8.70
2018-11-14T00:27:56.067Z,8.70
2018-11-14T00:30:25.432Z,8.70
2018-11-14T00:32:53.753Z,8.70
2018-11-14T00:35:22.126Z,8.60
2018-11-14T00:37:50.752Z,8.60
2018-11-14T00:40:19.662Z,8.70
2018-11-14T00:42:48.337Z,8.70
2018-11-14T00:45:17.826Z,8.70
2018-11-14T00:47:46.938Z,8.70
2018-11-14T00:50:16.003Z,8.70
2018-11-14T00:52:44.869Z,8.70
2018-11-14T00:55:15.530Z,8.60
2018-11-14T00:57:44.890Z,8.60
2018-11-14T01:00:15.350Z,8.50
2018-11-14T01:02:44.218Z,8.50
2018-11-14T01:05:13.419Z,8.40
2018-11-14T01:07:41.840Z,8.30
2018-11-14T01:10:11.756Z,8.30
2018-11-14T01:12:40.250Z,8.20
2018-11-14T01:15:10.589Z,8.20
2018-11-14T01:17:39.117Z,8.20
2018-11-14T01:20:09.206Z,8.20
2018-11-14T01:22:37.585Z,8.20
2018-11-14T01:25:06.622Z,8.20
2018-11-14T01:27:34.972Z,8.20
2018-11-14T01:30:03.365Z,8.20
2018-11-14T01:32:31.719Z,8.20
2018-11-14T01:35:00.041Z,8.20
2018-11-14T01:37:28.328Z,8.20
2018-11-14T01:39:56.672Z,8.20
2018-11-14T01:42:25.044Z,8.20
2018-11-14T01:45:01.438Z,8.10
2018-11-14T01:47:30.100Z,8.10
2018-11-14T01:49:58.463Z,8.10
2018-11-14T01:52:26.765Z,8.10
2018-11-14T01:54:55.157Z,8.10
2018-11-14T01:57:23.445Z,8.10
2018-11-14T01:59:51.819Z,8.10
2018-11-14T02:02:20.182Z,8.00
2018-11-14T02:04:48.582Z,8.10
2018-11-14T02:07:16.905Z,8.00
2018-11-14T02:09:45.213Z,8.10
2018-11-14T02:12:13.775Z,8.10
2018-11-14T02:14:42.264Z,8.10
2018-11-14T02:17:10.568Z,8.10
2018-11-14T02:19:38.894Z,8.10
2018-11-14T02:22:07.612Z,8.10
2018-11-14T02:24:36.019Z,8.10
2018-11-14T02:27:04.563Z,8.10
2018-11-14T02:29:32.884Z,8.10
2018-11-14T02:32:04.197Z,8.20
2018-11-14T02:34:32.485Z,8.20
2018-11-14T02:37:00.794Z,8.10
2018-11-14T02:39:29.100Z,8.10
2018-11-14T02:41:57.424Z,8.20
2018-11-14T02:44:25.778Z,8.10
2018-11-14T02:46:54.134Z,8.20
2018-11-14T02:49:23.351Z,8.20
2018-11-14T02:51:51.653Z,8.20
2018-11-14T02:54:19.933Z,8.10
2018-11-14T02:56:48.266Z,8.10
2018-11-14T02:59:16.597Z,8.00
2018-11-14T03:01:44.897Z,8.00
2018-11-14T03:04:13.277Z,8.00
2018-11-14T03:06:41.557Z,8.00
2018-11-14T03:09:09.988Z,8.00
2018-11-14T03:11:38.303Z,8.00
2018-11-14T03:14:06.907Z,8.00
2018-11-14T03:16:35.308Z,8.00
2018-11-14T03:19:03.601Z,8.00
2018-11-14T03:21:31.885Z,8.00
2018-11-14T03:24:00.153Z,8.00
2018-11-14T03:26:28.440Z,8.00
2018-11-14T03:28:56.761Z,8.10
2018-11-14T03:31:25.068Z,8.10
2018-11-14T03:33:53.337Z,8.10
2018-11-14T03:36:21.803Z,8.10
2018-11-14T03:38:50.231Z,8.20
2018-11-14T03:41:18.510Z,8.20
2018-11-14T03:43:47.004Z,8.20
2018-11-14T03:46:15.899Z,8.20
2018-11-14T03:48:44.630Z,8.30
2018-11-14T03:51:12.922Z,8.30
2018-11-14T03:53:41.219Z,8.40
2018-11-14T03:56:09.801Z,8.40
2018-11-14T03:58:38.129Z,8.30
2018-11-14T04:01:07.213Z,8.30
2018-11-14T04:03:35.541Z,8.30
2018-11-14T04:06:03.943Z,8.30
2018-11-14T04:08:32.229Z,8.20
2018-11-14T04:11:00.513Z,8.20
2018-11-14T04:13:28.800Z,8.20
2018-11-14T04:15:57.131Z,8.20
2018-11-14T04:18:25.400Z,8.20
2018-11-14T04:20:53.712Z,8.30
2018-11-14T04:23:21.984Z,8.30
2018-11-14T04:25:50.314Z,8.40
2018-11-14T04:28:18.613Z,8.40
2018-11-14T04:30:46.909Z,8.40
2018-11-14T04:33:15.248Z,8.30
2018-11-14T04:35:43.533Z,8.40
2018-11-14T04:38:11.822Z,8.40
2018-11-14T04:40:40.141Z,8.40
2018-11-14T04:43:08.457Z,8.40
2018-11-14T04:45:37.350Z,8.40
2018-11-14T04:48:05.853Z,8.40
2018-11-14T04:50:34.162Z,8.40
2018-11-14T04:53:02.486Z,8.40
2018-11-14T04:55:30.878Z,8.40
2018-11-14T04:57:59.204Z,8.40
2018-11-14T05:00:27.591Z,8.40
2018-11-14T05:02:55.892Z,8.30
2018-11-14T05:05:24.929Z,8.30
2018-11-14T05:07:53.227Z,8.30
2018-11-14T05:10:23.708Z,8.20
2018-11-14T05:12:52.552Z,8.20
2018-11-14T05:15:22.048Z,8.20
2018-11-14T05:17:51.043Z,8.20
2018-11-14T05:20:20.137Z,8.10
2018-11-14T05:22:48.718Z,8.20
2018-11-14T05:25:17.210Z,8.20
2018-11-14T05:27:45.580Z,8.30
2018-11-14T05:30:15.224Z,8.30
2018-11-14T05:32:44.696Z,8.20
2018-11-14T05:35:13.514Z,8.20
2018-11-14T05:37:41.930Z,8.20
2018-11-14T05:40:12.369Z,8.20
2018-11-14T05:42:41.009Z,8.10
2018-11-14T05:45:12.304Z,8.00
2018-11-14T05:47:40.593Z,8.00
2018-11-14T05:50:11.359Z,7.90
2018-11-14T05:52:39.811Z,7.80
2018-11-14T05:55:08.794Z,7.70
2018-11-14T05:57:37.181Z,7.70
2018-11-14T06:00:08.738Z,7.60
2018-11-14T06:02:37.064Z,7.50
2018-11-14T06:05:06.257Z,7.40
2018-11-14T06:07:34.596Z,7.40
2018-11-14T06:10:02.864Z,7.30
2018-11-14T06:12:32.016Z,7.40
2018-11-14T06:15:00.328Z,7.30
2018-11-14T06:17:28.628Z,7.30
2018-11-14T06:19:57.038Z,7.20
2018-11-14T06:22:25.360Z,7.20
2018-11-14T06:24:54.419Z,7.20
2018-11-14T06:27:22.765Z,7.10
2018-11-14T06:29:51.107Z,7.10
2018-11-14T06:32:19.393Z,7.00
2018-11-14T06:34:47.713Z,7.00
2018-11-14T06:37:16.020Z,6.90
2018-11-14T06:39:44.292Z,6.80
2018-11-14T06:42:12.581Z,6.80
2018-11-14T06:44:40.862Z,6.70
2018-11-14T06:47:09.174Z,6.60
2018-11-14T06:49:37.498Z,6.60
2018-11-14T06:52:05.963Z,6.50
2018-11-14T06:54:34.275Z,6.50
2018-11-14T06:57:02.560Z,6.40
2018-11-14T06:59:31.139Z,6.30
2018-11-14T07:01:59.345Z,6.30
2018-11-14T07:04:27.626Z,6.20
2018-11-14T07:06:55.959Z,6.20
2018-11-14T07:09:24.245Z,6.10
2018-11-14T07:11:52.520Z,6.10
2018-11-14T07:14:20.829Z,6.10
2018-11-14T07:16:49.116Z,6.10
2018-11-14T07:19:17.453Z,6.10
2018-11-14T07:21:45.725Z,6.10
2018-11-14T07:24:14.009Z,6.20
2018-11-14T07:26:42.263Z,6.20
2018-11-14T07:29:10.532Z,6.30
2018-11-14T07:31:38.813Z,6.30
2018-11-14T07:34:07.141Z,6.60
2018-11-14T07:36:35.432Z,6.90
2018-11-14T07:39:04.997Z,7.20
2018-11-14T07:41:36.749Z,7.60
2018-11-14T07:44:05.358Z,8.00
2018-11-14T07:46:34.110Z,8.30
2018-11-14T07:49:02.406Z,8.60
2018-11-14T07:51:30.816Z,8.90
2018-11-14T07:53:59.261Z,9.30
2018-11-14T07:56:27.644Z,9.60
2018-11-14T07:58:55.966Z,9.80
2018-11-14T08:01:24.280Z,10.20
2018-11-14T08:03:52.561Z,10.50
2018-11-14T08:06:20.832Z,10.70
2018-11-14T08:08:49.127Z,11.00
2018-11-14T08:11:17.505Z,11.30
2018-11-14T08:13:47.074Z,11.60
2018-11-14T08:16:15.421Z,11.80
2018-11-14T08:18:43.762Z,11.90
2018-11-14T08:21:12.027Z,12.00
2018-11-14T08:23:40.342Z,11.90
2018-11-14T08:26:08.617Z,12.00
2018-11-14T08:28:36.929Z,11.80
2018-11-14T08:31:05.298Z,12.00
2018-11-14T08:33:33.588Z,12.20
2018-11-14T08:36:01.867Z,12.50
2018-11-14T08:38:30.200Z,12.70
2018-11-14T08:40:58.668Z,12.70
2018-11-14T08:43:26.975Z,13.00
2018-11-14T08:45:55.344Z,13.20
2018-11-14T08:48:23.625Z,13.20
2018-11-14T08:50:51.950Z,13.40
2018-11-14T08:53:20.274Z,13.60
2018-11-14T08:55:48.554Z,13.80
2018-11-14T08:58:16.897Z,14.00
2018-11-14T09:00:45.188Z,14.10
2018-11-14T09:03:14.206Z,13.90
2018-11-14T09:05:42.544Z,14.20
2018-11-14T09:08:10.920Z,14.30
2018-11-14T09:10:39.193Z,14.30
2018-11-14T09:13:12.121Z,14.70
2018-11-14T09:15:40.512Z,15.10
2018-11-14T09:18:08.968Z,15.30
2018-11-14T09:20:37.507Z,15.30
2018-11-14T09:23:06.204Z,15.30
2018-11-14T09:25:34.576Z,15.50
2018-11-14T09:28:03.398Z,15.30
2018-11-14T09:30:31.747Z,15.40
2018-11-14T09:33:00.101Z,15.70
2018-11-14T09:35:28.673Z,15.80
2018-11-14T09:37:58.192Z,16.20
2018-11-14T09:40:27.560Z,16.40
2018-11-14T09:42:55.913Z,16.70
2018-11-14T09:45:25.477Z,16.40
2018-11-14T09:47:53.748Z,16.70
2018-11-14T09:50:24.992Z,16.90
2018-11-14T09:52:55.372Z,17.00
2018-11-14T09:55:23.961Z,16.70
2018-11-14T09:57:52.369Z,17.00
2018-11-14T10:00:22.886Z,17.20
2018-11-14T10:02:53.778Z,17.30
2018-11-14T10:05:23.085Z,17.60
2018-11-14T10:07:51.592Z,17.60
2018-11-14T10:10:20.991Z,17.60
2018-11-14T10:12:49.320Z,17.40
2018-11-14T10:15:20.846Z,17.00
2018-11-14T10:17:49.778Z,16.90
2018-11-14T10:20:22.391Z,16.80
2018-11-14T10:22:50.828Z,16.80
2018-11-14T10:25:19.312Z,16.80
2018-11-14T10:27:48.189Z,16.50
2018-11-14T10:30:19.936Z,16.20
2018-11-14T10:32:48.771Z,15.60
2018-11-14T10:35:17.096Z,15.30
2018-11-14T10:37:45.493Z,15.20
2018-11-14T10:40:16.241Z,15.10
2018-11-14T10:42:44.887Z,14.80
2018-11-14T10:45:14.465Z,14.50
2018-11-14T10:47:42.900Z,14.30
2018-11-14T10:50:15.171Z,14.40
2018-11-14T10:52:44.087Z,14.30
2018-11-14T10:55:13.188Z,14.20
2018-11-14T10:57:41.484Z,14.20
2018-11-14T11:00:18.197Z,14.00
2018-11-14T11:02:51.909Z,13.90
2018-11-14T11:05:25.574Z,13.80
2018-11-14T11:07:59.458Z,13.80
2018-11-14T11:10:33.033Z,13.60
2018-11-14T11:13:06.496Z,13.60
2018-11-14T11:15:40.282Z,13.60
2018-11-14T11:18:10.861Z,13.60
2018-11-14T11:20:39.276Z,13.50
2018-11-14T11:23:07.925Z,13.40
2018-11-14T11:25:36.214Z,13.50
2018-11-14T11:28:04.637Z,13.40
2018-11-14T11:30:32.941Z,13.40
2018-11-14T11:33:01.378Z,13.50
2018-11-14T11:35:29.993Z,13.40
2018-11-14T11:37:58.312Z,13.30
2018-11-14T11:40:26.595Z,13.40
2018-11-14T11:42:54.873Z,13.40
2018-11-14T11:45:23.150Z,13.30
2018-11-14T11:47:51.452Z,13.30
2018-11-14T11:50:19.905Z,13.40
2018-11-14T11:52:48.390Z,13.50
2018-11-14T11:55:16.652Z,13.50
2018-11-14T11:57:45.493Z,13.50
2018-11-14T12:00:14.241Z,13.50
2018-11-14T12:02:43.336Z,13.50
2018-11-14T12:05:12.876Z,13.60
2018-11-14T12:07:41.812Z,13.50
2018-11-14T12:10:11.513Z,13.50
2018-11-14T12:12:40.057Z,13.50
2018-11-14T12:15:09.475Z,13.50
2018-11-14T12:17:38.106Z,13.60
2018-11-14T12:20:07.507Z,13.60
2018-11-14T12:22:35.885Z,13.70
2018-11-14T12:25:04.181Z,13.80
2018-11-14T12:27:32.522Z,14.00
2018-11-14T12:30:00.993Z,14.10
2018-11-14T12:32:29.084Z,14.30
2018-11-14T12:34:57.413Z,14.20
2018-11-14T12:37:25.652Z,14.20
2018-11-14T12:39:53.925Z,14.30
2018-11-14T12:42:22.202Z,14.70
2018-11-14T12:44:50.508Z,15.30
2018-11-14T12:47:18.770Z,15.80
2018-11-14T12:49:47.041Z,16.30
2018-11-14T12:52:15.305Z,16.50
2018-11-14T12:54:43.834Z,16.50
2018-11-14T12:57:12.130Z,16.70
2018-11-14T12:59:40.474Z,16.90
2018-11-14T13:02:08.772Z,17.60
2018-11-14T13:04:37.069Z,18.10
2018-11-14T13:07:05.473Z,18.70
2018-11-14T13:09:33.761Z,18.80
2018-11-14T13:12:02.062Z,18.80
2018-11-14T13:14:30.326Z,18.80
2018-11-14T13:16:58.660Z,18.80
2018-11-14T13:19:26.969Z,19.00
2018-11-14T13:21:55.253Z,19.10
2018-11-14T13:24:23.565Z,19.60
2018-11-14T13:26:51.836Z,20.00
2018-11-14T13:29:20.108Z,20.40
2018-11-14T13:31:48.365Z,20.50
2018-11-14T13:34:16.729Z,20.90
2018-11-14T13:36:45.031Z,20.70
2018-11-14T13:39:13.334Z,20.30
2018-11-14T13:41:41.621Z,20.00
2018-11-14T13:44:09.952Z,19.80
2018-11-14T13:46:39.880Z,19.90
2018-11-14T13:49:08.254Z,20.30
2018-11-14T13:51:36.414Z,20.60
2018-11-14T13:54:05.061Z,21.00
2018-11-14T13:56:33.535Z,20.80
2018-11-14T13:59:01.929Z,21.00
2018-11-14T14:01:30.182Z,20.60
2018-11-14T14:03:58.453Z,20.60
2018-11-14T14:06:26.864Z,20.60
2018-11-14T14:08:55.178Z,20.60
2018-11-14T14:11:23.489Z,19.80
2018-11-14T14:13:57.014Z,19.80
2018-11-14T14:16:25.404Z,19.50
2018-11-14T14:18:53.651Z,19.40
2018-11-14T14:21:21.917Z,19.10
2018-11-14T14:23:50.165Z,18.90
2018-11-14T14:26:18.609Z,18.80
2018-11-14T14:28:47.032Z,18.80
2018-11-14T14:31:15.493Z,18.90
2018-11-14T14:33:43.961Z,19.00
2018-11-14T14:36:12.395Z,18.80
2018-11-14T14:38:40.712Z,18.60
2018-11-14T14:41:09.089Z,18.20
2018-11-14T14:43:37.590Z,17.80
2018-11-14T14:46:06.283Z,17.40
2018-11-14T14:48:35.200Z,16.70
2018-11-14T14:51:03.641Z,16.10
2018-11-14T14:53:31.946Z,15.50
2018-11-14T14:56:00.234Z,15.10
2018-11-14T14:58:28.824Z,14.70
2018-11-14T15:00:57.234Z,14.50
2018-11-14T15:03:25.630Z,14.30
2018-11-14T15:05:54.134Z,14.20
2018-11-14T15:08:29.063Z,14.00
2018-11-14T15:10:57.585Z,13.80
2018-11-14T15:13:25.943Z,13.60
2018-11-14T15:15:54.284Z,13.50
2018-11-14T15:18:22.819Z,13.40
2018-11-14T15:20:51.231Z,13.30
2018-11-14T15:23:20.808Z,13.20
2018-11-14T15:25:49.125Z,13.10
2018-11-14T15:28:17.590Z,12.90
2018-11-14T15:30:45.896Z,12.60
2018-11-14T15:33:14.193Z,12.40
2018-11-14T15:35:42.523Z,12.10
2018-11-14T15:38:10.827Z,11.80
2018-11-14T15:40:39.160Z,11.60
2018-11-14T15:43:07.609Z,11.50
2018-11-14T15:45:35.871Z,11.40
2018-11-14T15:48:04.274Z,11.20
2018-11-14T15:50:32.736Z,11.10
2018-11-14T15:53:01.069Z,11.00
2018-11-14T15:55:29.421Z,10.90
2018-11-14T15:57:57.954Z,10.80
2018-11-14T16:00:28.337Z,10.80
2018-11-14T16:02:56.822Z,10.70
2018-11-14T16:05:26.253Z,10.60
2018-11-14T16:07:55.757Z,10.60
2018-11-14T16:10:24.920Z,10.40
2018-11-14T16:12:53.243Z,10.40
2018-11-14T16:15:27.944Z,10.20
2018-11-14T16:17:56.472Z,10.20
2018-11-14T16:20:31.783Z,10.10
2018-11-14T16:23:00.171Z,10.00
2018-11-14T16:25:28.817Z,10.00
2018-11-14T16:28:04.924Z,9.90
2018-11-14T16:30:46.375Z,9.80
2018-11-14T16:33:17.862Z,9.70
2018-11-14T16:35:51.275Z,9.60
2018-11-14T16:38:19.915Z,9.50
2018-11-14T16:40:48.249Z,9.40
2018-11-14T16:43:23.390Z,9.40
2018-11-14T16:45:51.808Z,9.30
2018-11-14T16:48:20.187Z,9.30
2018-11-14T16:50:48.662Z,9.20
2018-11-14T16:53:17.141Z,9.20
2018-11-14T16:55:45.639Z,9.10
2018-11-14T16:58:13.971Z,9.00
2018-11-14T17:00:42.257Z,9.00
2018-11-14T17:03:10.588Z,8.90
2018-11-14T17:05:38.975Z,8.80
2018-11-14T17:08:07.284Z,8.70
2018-11-14T17:10:35.608Z,8.60
2018-11-14T17:13:03.896Z,8.60
2018-11-14T17:15:32.242Z,8.50
2018-11-14T17:18:00.703Z,8.40
2018-11-14T17:20:29.136Z,8.40
2018-11-14T17:22:58.102Z,8.30
2018-11-14T17:25:26.387Z,8.20
2018-11-14T17:27:54.652Z,8.20
2018-11-14T17:30:25.281Z,8.10
2018-11-14T17:32:54.437Z,8.00
2018-11-14T17:35:22.909Z,8.00
2018-11-14T17:37:51.208Z,7.90
2018-11-14T17:40:22.915Z,7.80
2018-11-14T17:42:52.045Z,7.80
2018-11-14T17:45:22.155Z,7.70
2018-11-14T17:47:51.024Z,7.60
2018-11-14T17:50:21.283Z,7.60
2018-11-14T17:52:50.444Z,7.50
2018-11-14T17:55:19.959Z,7.50
2018-11-14T17:57:48.396Z,7.40
2018-11-14T18:00:19.657Z,7.30
2018-11-14T18:02:48.077Z,7.30
2018-11-14T18:05:17.801Z,7.20
2018-11-14T18:07:47.062Z,7.10
2018-11-14T18:10:17.770Z,7.10
2018-11-14T18:12:46.869Z,7.00
2018-11-14T18:15:15.312Z,7.00
2018-11-14T18:17:43.798Z,6.90
2018-11-14T18:20:14.422Z,6.90
2018-11-14T18:22:43.797Z,6.90
2018-11-14T18:25:12.419Z,6.80
2018-11-14T18:27:41.012Z,6.80
2018-11-14T18:30:13.902Z,6.70
2018-11-14T18:32:42.325Z,6.70
2018-11-14T18:35:14.151Z,6.60
2018-11-14T18:37:43.591Z,6.60
2018-11-14T18:40:14.313Z,6.50
2018-11-14T18:42:42.798Z,6.50
2018-11-14T18:45:14.941Z,6.40
2018-11-14T18:47:44.279Z,6.40
2018-11-14T18:50:13.631Z,6.30
2018-11-14T18:52:42.417Z,6.30
2018-11-14T18:55:13.180Z,6.30
2018-11-14T18:57:42.498Z,6.20
2018-11-14T19:00:15.099Z,6.20
2018-11-14T19:02:43.853Z,6.20
2018-11-14T19:05:13.266Z,6.10
2018-11-14T19:07:42.221Z,6.10
2018-11-14T19:10:12.392Z,6.10
2018-11-14T19:12:41.221Z,6.10
2018-11-14T19:15:12.226Z,6.10
2018-11-14T19:17:40.765Z,6.10
2018-11-14T19:20:11.546Z,6.10
2018-11-14T19:22:39.521Z,6.10
2018-11-14T19:25:09.750Z,6.20
2018-11-14T19:27:38.093Z,6.20
2018-11-14T19:30:10.820Z,6.20
2018-11-14T19:32:39.241Z,6.20
2018-11-14T19:35:09.512Z,6.20
2018-11-14T19:37:37.990Z,6.20
2018-11-14T19:40:09.135Z,6.20
2018-11-14T19:42:37.532Z,6.20
2018-11-14T19:45:08.334Z,6.10
2018-11-14T19:47:37.301Z,6.10
2018-11-14T19:50:07.643Z,6.10
2018-11-14T19:52:36.249Z,6.10
2018-11-14T19:55:04.924Z,6.10
2018-11-14T19:57:33.486Z,6.10
2018-11-14T20:00:02.225Z,6.10
2018-11-14T20:02:31.116Z,6.10
2018-11-14T20:04:59.477Z,6.10
2018-11-14T20:07:27.796Z,6.10
2018-11-14T20:09:56.293Z,6.10
2018-11-14T20:12:25.125Z,6.00
2018-11-14T20:14:54.106Z,6.00
2018-11-14T20:17:22.741Z,6.00
2018-11-14T20:19:51.303Z,6.00
2018-11-14T20:22:19.735Z,5.90
2018-11-14T20:24:48.188Z,5.90
2018-11-14T20:27:16.637Z,5.90
2018-11-14T20:29:45.666Z,5.90
2018-11-14T20:32:14.392Z,5.90
2018-11-14T20:34:44.129Z,5.90
2018-11-14T20:37:13.558Z,5.80
2018-11-14T20:39:42.512Z,5.80
2018-11-14T20:42:10.892Z,5.80
2018-11-14T20:44:39.285Z,5.80
2018-11-14T20:47:08.021Z,5.80
2018-11-14T20:49:36.823Z,5.70
2018-11-14T20:52:12.082Z,5.70
2018-11-14T20:54:40.563Z,5.60
2018-11-14T20:57:08.848Z,5.60
2018-11-14T20:59:37.145Z,5.50
2018-11-14T21:02:05.831Z,5.50
2018-11-14T21:04:34.189Z,5.40
2018-11-14T21:07:02.593Z,5.40
2018-11-14T21:09:31.039Z,5.40
2018-11-14T21:12:00.097Z,5.30
2018-11-14T21:14:28.483Z,5.30
2018-11-14T21:16:56.805Z,5.30
2018-11-14T21:19:25.361Z,5.20
2018-11-14T21:21:53.708Z,5.20
2018-11-14T21:24:22.087Z,5.20
2018-11-14T21:26:50.405Z,5.10
2018-11-14T21:29:18.701Z,5.10
2018-11-14T21:31:47.026Z,5.10
2018-11-14T21:34:15.372Z,5.00
2018-11-14T21:36:43.668Z,5.00
2018-11-14T21:39:14.103Z,4.90
2018-11-14T21:41:43.097Z,4.90
2018-11-14T21:44:11.448Z,4.90
2018-11-14T21:46:39.784Z,4.90
2018-11-14T21:49:12.290Z,4.90
2018-11-14T21:51:40.731Z,4.90
2018-11-14T21:54:09.177Z,4.90
2018-11-14T21:56:37.552Z,4.80
2018-11-14T21:59:05.916Z,4.80
2018-11-14T22:01:34.370Z,4.80
2018-11-14T22:04:02.719Z,4.70
2018-11-14T22:06:31.035Z,4.60
2018-11-14T22:08:59.342Z,4.50
2018-11-14T22:11:27.691Z,4.50
2018-11-14T22:13:56.096Z,4.40
2018-11-14T22:16:24.486Z,4.40
2018-11-14T22:18:52.865Z,4.30
2018-11-14T22:21:21.171Z,4.30
2018-11-14T22:23:49.385Z,4.20
2018-11-14T22:26:17.656Z,4.20
2018-11-14T22:28:45.996Z,4.20
2018-11-14T22:31:14.303Z,4.20
2018-11-14T22:33:42.625Z,4.20
2018-11-14T22:36:10.954Z,4.20
2018-11-14T22:38:39.234Z,4.10
2018-11-14T22:41:07.727Z,4.10
2018-11-14T22:43:36.115Z,4.00
2018-11-14T22:46:04.553Z,4.00
2018-11-14T22:48:32.862Z,4.00
2018-11-14T22:51:01.133Z,4.00
2018-11-14T22:53:29.419Z,4.00
2018-11-14T22:55:57.689Z,4.00
2018-11-14T22:58:25.973Z,3.90
2018-11-14T23:00:54.243Z,3.90
2018-11-14T23:03:23.600Z,3.80
2018-11-14T23:05:52.594Z,3.80
2018-11-14T23:08:21.917Z,3.70
2018-11-14T23:10:51.088Z,3.70
2018-11-14T23:13:20.296Z,3.70
2018-11-14T23:15:49.713Z,3.70
2018-11-14T23:18:18.028Z,3.60
2018-11-14T23:20:46.297Z,3.60
2018-11-14T23:23:14.653Z,3.50
2018-11-14T23:25:42.977Z,3.50
2018-11-14T23:28:11.275Z,3.40
2018-11-14T23:30:39.565Z,3.40
2018-11-14T23:33:08.374Z,3.40
2018-11-14T23:35:36.674Z,3.30
2018-11-14T23:38:05.984Z,3.30
2018-11-14T23:40:34.290Z,3.20
2018-11-14T23:43:02.612Z,3.20
2018-11-14T23:45:31.728Z,3.10
2018-11-14T23:48:00.040Z,3.10
2018-11-14T23:50:30.557Z,3.00
2018-11-14T23:52:59.781Z,2.90
2018-11-14T23:55:29.044Z,2.90
2018-11-14T23:57:57.693Z,2.90
